sensor_id;sensor_type;location;lat;lon;timestamp;temperature;humidity
9998;DHT22;5038;53.064;8.624;2023-10-09T00:00:07;14.10;99.90
9998;DHT22;5038;53.064;8.624;2023-10-09T00:03:05;14.00;99.90
9998;DHT22;5038;53.064;8.624;2023-10-09T00:05:33;14.00;99.90
9998;DHT22;5038;53.064;8.624;2023-10-09T00:08:14;14.00;99.90
9998;DHT22;5038;53.064;8.624;2023-10-09T00:10:46;14.00;99.90
9998;DHT22;5038;53.064;8.624;2023-10-09T00:13:21;14.00;99.90
9998;DHT22;5038;53.064;8.624;2023-10-09T00:16:00;14.00;99.90
9998;DHT22;5038;53.064;8.624;2023-10-09T00:18:37;14.00;99.90
9998;DHT22;5038;53.064;8.624;2023-10-09T00:21:05;14.00;99.90
9998;DHT22;5038;53.064;8.624;2023-10-09T00:23:40;14.00;99.90
9998;DHT22;5038;53.064;8.624;2023-10-09T00:26:09;14.00;99.90
9998;DHT22;5038;53.064;8.624;2023-10-09T00:28:47;14.00;99.90
9998;DHT22;5038;53.064;8.624;2023-10-09T00:31:18;14.00;99.90
9998;DHT22;5038;53.064;8.624;2023-10-09T00:33:56;14.00;99.90
9998;DHT22;5038;53.064;8.624;2023-10-09T00:36:30;14.00;99.90
9998;DHT22;5038;53.064;8.624;2023-10-09T00:38:59;14.00;99.90
9998;DHT22;5038;53.064;8.624;2023-10-09T00:41:39;14.00;99.90
9998;DHT22;5038;53.064;8.624;2023-10-09T00:44:08;13.90;99.90
9998;DHT22;5038;53.064;8.624;2023-10-09T00:46:38;13.90;99.90
9998;DHT22;5038;53.064;8.624;2023-10-09T00:49:11;13.90;99.90
9998;DHT22;5038;53.064;8.624;2023-10-09T00:51:47;13.90;99.90
9998;DHT22;5038;53.064;8.624;2023-10-09T00:54:23;13.90;99.90
9998;DHT22;5038;53.064;8.624;2023-10-09T00:57:02;13.90;99.90
9998;DHT22;5038;53.064;8.624;2023-10-09T00:59:34;13.90;99.90
9998;DHT22;5038;53.064;8.624;2023-10-09T01:02:05;13.90;99.90
9998;DHT22;5038;53.064;8.624;2023-10-09T01:04:36;13.90;99.90
9998;DHT22;5038;53.064;8.624;2023-10-09T01:07:08;13.90;99.90
9998;DHT22;5038;53.064;8.624;2023-10-09T01:09:37;13.90;99.90
9998;DHT22;5038;53.064;8.624;2023-10-09T01:12:10;13.90;99.90
9998;DHT22;5038;53.064;8.624;2023-10-09T01:14:44;13.90;99.90
9998;DHT22;5038;53.064;8.624;2023-10-09T01:17:13;13.90;99.90
9998;DHT22;5038;53.064;8.624;2023-10-09T01:19:57;13.90;99.90
9998;DHT22;5038;53.064;8.624;2023-10-09T01:22:30;13.80;99.90
9998;DHT22;5038;53.064;8.624;2023-10-09T01:25:00;13.80;99.90
9998;DHT22;5038;53.064;8.624;2023-10-09T01:27:32;13.80;99.90
9998;DHT22;5038;53.064;8.624;2023-10-09T01:30:01;13.80;99.90
9998;DHT22;5038;53.064;8.624;2023-10-09T01:32:29;13.80;99.90
9998;DHT22;5038;53.064;8.624;2023-10-09T01:34:57;13.80;99.90
9998;DHT22;5038;53.064;8.624;2023-10-09T01:37:26;13.80;99.90
9998;DHT22;5038;53.064;8.624;2023-10-09T01:39:57;13.80;99.90
9998;DHT22;5038;53.064;8.624;2023-10-09T01:42:27;13.80;99.90
9998;DHT22;5038;53.064;8.624;2023-10-09T01:45:02;13.80;99.90
9998;DHT22;5038;53.064;8.624;2023-10-09T01:47:44;13.80;99.90
9998;DHT22;5038;53.064;8.624;2023-10-09T01:50:19;13.80;99.90
9998;DHT22;5038;53.064;8.624;2023-10-09T01:52:49;13.80;99.90
9998;DHT22;5038;53.064;8.624;2023-10-09T01:55:18;13.80;99.90
9998;DHT22;5038;53.064;8.624;2023-10-09T01:57:57;13.80;99.90
9998;DHT22;5038;53.064;8.624;2023-10-09T02:00:28;13.70;99.90
9998;DHT22;5038;53.064;8.624;2023-10-09T02:02:57;13.70;99.90
9998;DHT22;5038;53.064;8.624;2023-10-09T02:05:30;13.70;99.90
9998;DHT22;5038;53.064;8.624;2023-10-09T02:08:00;13.70;99.90
9998;DHT22;5038;53.064;8.624;2023-10-09T02:10:31;13.70;99.90
9998;DHT22;5038;53.064;8.624;2023-10-09T02:13:02;13.70;99.90
9998;DHT22;5038;53.064;8.624;2023-10-09T02:15:35;13.70;99.90
9998;DHT22;5038;53.064;8.624;2023-10-09T02:18:19;13.70;99.90
9998;DHT22;5038;53.064;8.624;2023-10-09T02:21:05;13.70;99.90
9998;DHT22;5038;53.064;8.624;2023-10-09T02:23:40;13.70;99.90
9998;DHT22;5038;53.064;8.624;2023-10-09T02:26:14;13.70;99.90
9998;DHT22;5038;53.064;8.624;2023-10-09T02:28:48;13.70;99.90
9998;DHT22;5038;53.064;8.624;2023-10-09T02:31:26;13.70;99.90
9998;DHT22;5038;53.064;8.624;2023-10-09T02:34:04;13.60;99.90
9998;DHT22;5038;53.064;8.624;2023-10-09T02:36:34;13.60;99.90
9998;DHT22;5038;53.064;8.624;2023-10-09T02:39:05;13.60;99.90
9998;DHT22;5038;53.064;8.624;2023-10-09T02:41:34;13.60;99.90
9998;DHT22;5038;53.064;8.624;2023-10-09T02:44:16;13.60;99.90
9998;DHT22;5038;53.064;8.624;2023-10-09T02:46:51;13.50;99.90
9998;DHT22;5038;53.064;8.624;2023-10-09T02:49:24;13.50;99.90
9998;DHT22;5038;53.064;8.624;2023-10-09T02:51:53;13.40;99.90
9998;DHT22;5038;53.064;8.624;2023-10-09T02:54:21;13.40;99.90
9998;DHT22;5038;53.064;8.624;2023-10-09T02:57:02;13.40;99.90
9998;DHT22;5038;53.064;8.624;2023-10-09T02:59:36;13.40;99.90
9998;DHT22;5038;53.064;8.624;2023-10-09T03:02:11;13.40;99.90
9998;DHT22;5038;53.064;8.624;2023-10-09T03:04:39;13.40;99.90
9998;DHT22;5038;53.064;8.624;2023-10-09T03:07:08;13.40;99.90
9998;DHT22;5038;53.064;8.624;2023-10-09T03:09:38;13.40;99.90
9998;DHT22;5038;53.064;8.624;2023-10-09T03:12:08;13.40;99.90
9998;DHT22;5038;53.064;8.624;2023-10-09T03:14:41;13.40;99.90
9998;DHT22;5038;53.064;8.624;2023-10-09T03:17:09;13.40;99.90
9998;DHT22;5038;53.064;8.624;2023-10-09T03:19:41;13.40;99.90
9998;DHT22;5038;53.064;8.624;2023-10-09T03:22:10;13.50;99.90
9998;DHT22;5038;53.064;8.624;2023-10-09T03:24:39;13.50;99.90
9998;DHT22;5038;53.064;8.624;2023-10-09T03:27:12;13.50;99.90
9998;DHT22;5038;53.064;8.624;2023-10-09T03:29:44;13.50;99.90
9998;DHT22;5038;53.064;8.624;2023-10-09T03:32:16;13.50;99.90
9998;DHT22;5038;53.064;8.624;2023-10-09T03:34:46;13.50;99.90
9998;DHT22;5038;53.064;8.624;2023-10-09T03:37:16;13.60;99.90
9998;DHT22;5038;53.064;8.624;2023-10-09T03:40:00;13.60;99.90
9998;DHT22;5038;53.064;8.624;2023-10-09T03:42:28;13.60;99.90
9998;DHT22;5038;53.064;8.624;2023-10-09T03:44:58;13.60;99.90
9998;DHT22;5038;53.064;8.624;2023-10-09T03:47:27;13.60;99.90
9998;DHT22;5038;53.064;8.624;2023-10-09T03:49:55;13.60;99.90
9998;DHT22;5038;53.064;8.624;2023-10-09T03:52:29;13.60;99.90
9998;DHT22;5038;53.064;8.624;2023-10-09T03:54:57;13.60;99.90
9998;DHT22;5038;53.064;8.624;2023-10-09T03:57:27;13.60;99.90
9998;DHT22;5038;53.064;8.624;2023-10-09T03:59:55;13.60;99.90
9998;DHT22;5038;53.064;8.624;2023-10-09T04:02:25;13.60;99.90
9998;DHT22;5038;53.064;8.624;2023-10-09T04:04:54;13.60;99.90
9998;DHT22;5038;53.064;8.624;2023-10-09T04:07:22;13.60;99.90
9998;DHT22;5038;53.064;8.624;2023-10-09T04:09:50;13.60;99.90
9998;DHT22;5038;53.064;8.624;2023-10-09T04:12:39;13.60;99.90
9998;DHT22;5038;53.064;8.624;2023-10-09T04:15:09;13.60;99.90
9998;DHT22;5038;53.064;8.624;2023-10-09T04:17:43;13.60;99.90
9998;DHT22;5038;53.064;8.624;2023-10-09T04:20:11;13.60;99.90
9998;DHT22;5038;53.064;8.624;2023-10-09T04:23:10;13.60;99.90
9998;DHT22;5038;53.064;8.624;2023-10-09T04:25:43;13.60;99.90
9998;DHT22;5038;53.064;8.624;2023-10-09T04:28:12;13.60;99.90
9998;DHT22;5038;53.064;8.624;2023-10-09T04:30:47;13.60;99.90
9998;DHT22;5038;53.064;8.624;2023-10-09T04:33:22;13.60;99.90
9998;DHT22;5038;53.064;8.624;2023-10-09T04:36:10;13.50;99.90
9998;DHT22;5038;53.064;8.624;2023-10-09T04:38:53;13.50;99.90
9998;DHT22;5038;53.064;8.624;2023-10-09T04:41:43;13.50;99.90
9998;DHT22;5038;53.064;8.624;2023-10-09T04:44:40;13.50;99.90
9998;DHT22;5038;53.064;8.624;2023-10-09T04:47:26;13.50;99.90
9998;DHT22;5038;53.064;8.624;2023-10-09T04:50:06;13.50;99.90
9998;DHT22;5038;53.064;8.624;2023-10-09T04:52:37;13.50;99.90
9998;DHT22;5038;53.064;8.624;2023-10-09T04:55:19;13.50;99.90
9998;DHT22;5038;53.064;8.624;2023-10-09T04:57:51;13.50;99.90
9998;DHT22;5038;53.064;8.624;2023-10-09T05:00:29;13.50;99.90
9998;DHT22;5038;53.064;8.624;2023-10-09T05:03:14;13.50;99.90
9998;DHT22;5038;53.064;8.624;2023-10-09T05:05:57;13.50;99.90
9998;DHT22;5038;53.064;8.624;2023-10-09T05:08:48;13.50;99.90
9998;DHT22;5038;53.064;8.624;2023-10-09T05:11:15;13.50;99.90
9998;DHT22;5038;53.064;8.624;2023-10-09T05:14:01;13.50;99.90
9998;DHT22;5038;53.064;8.624;2023-10-09T05:16:41;13.50;99.90
9998;DHT22;5038;53.064;8.624;2023-10-09T05:19:21;13.50;99.90
9998;DHT22;5038;53.064;8.624;2023-10-09T05:22:11;13.50;99.90
9998;DHT22;5038;53.064;8.624;2023-10-09T05:24:57;13.50;99.90
9998;DHT22;5038;53.064;8.624;2023-10-09T05:27:25;13.50;99.90
9998;DHT22;5038;53.064;8.624;2023-10-09T05:30:08;13.50;99.90
9998;DHT22;5038;53.064;8.624;2023-10-09T05:32:55;13.50;99.90
9998;DHT22;5038;53.064;8.624;2023-10-09T05:35:26;13.50;99.90
9998;DHT22;5038;53.064;8.624;2023-10-09T05:38:10;13.60;99.90
9998;DHT22;5038;53.064;8.624;2023-10-09T05:40:51;13.60;99.90
9998;DHT22;5038;53.064;8.624;2023-10-09T05:43:21;13.60;99.90
9998;DHT22;5038;53.064;8.624;2023-10-09T05:46:18;13.60;99.90
9998;DHT22;5038;53.064;8.624;2023-10-09T05:48:46;13.60;99.90
9998;DHT22;5038;53.064;8.624;2023-10-09T05:51:22;13.60;99.90
9998;DHT22;5038;53.064;8.624;2023-10-09T05:54:08;13.60;99.90
9998;DHT22;5038;53.064;8.624;2023-10-09T05:56:50;13.60;99.90
9998;DHT22;5038;53.064;8.624;2023-10-09T05:59:47;13.60;99.90
9998;DHT22;5038;53.064;8.624;2023-10-09T06:02:37;13.70;99.90
9998;DHT22;5038;53.064;8.624;2023-10-09T06:05:28;13.70;99.90
9998;DHT22;5038;53.064;8.624;2023-10-09T06:08:18;13.70;99.90
9998;DHT22;5038;53.064;8.624;2023-10-09T06:10:53;13.70;99.90
9998;DHT22;5038;53.064;8.624;2023-10-09T06:13:42;13.70;99.90
9998;DHT22;5038;53.064;8.624;2023-10-09T06:16:13;13.70;99.90
9998;DHT22;5038;53.064;8.624;2023-10-09T06:18:57;13.80;99.90
9998;DHT22;5038;53.064;8.624;2023-10-09T06:21:39;13.80;99.90
9998;DHT22;5038;53.064;8.624;2023-10-09T06:24:08;13.80;99.90
9998;DHT22;5038;53.064;8.624;2023-10-09T06:26:47;13.80;99.90
9998;DHT22;5038;53.064;8.624;2023-10-09T06:29:32;13.80;99.90
9998;DHT22;5038;53.064;8.624;2023-10-09T06:32:06;13.80;99.90
9998;DHT22;5038;53.064;8.624;2023-10-09T06:35:01;13.90;99.90
9998;DHT22;5038;53.064;8.624;2023-10-09T06:37:49;13.90;99.90
9998;DHT22;5038;53.064;8.624;2023-10-09T06:40:37;13.90;99.90
9998;DHT22;5038;53.064;8.624;2023-10-09T06:43:24;13.90;99.90
9998;DHT22;5038;53.064;8.624;2023-10-09T06:45:56;14.00;99.90
9998;DHT22;5038;53.064;8.624;2023-10-09T06:48:45;14.00;99.90
9998;DHT22;5038;53.064;8.624;2023-10-09T06:51:13;14.00;99.90
9998;DHT22;5038;53.064;8.624;2023-10-09T06:54:04;14.10;99.90
9998;DHT22;5038;53.064;8.624;2023-10-09T06:56:33;14.00;99.90
9998;DHT22;5038;53.064;8.624;2023-10-09T06:59:32;14.10;99.90
9998;DHT22;5038;53.064;8.624;2023-10-09T07:02:29;14.10;99.90
9998;DHT22;5038;53.064;8.624;2023-10-09T07:05:03;14.10;99.90
9998;DHT22;5038;53.064;8.624;2023-10-09T07:07:40;14.20;99.90
9998;DHT22;5038;53.064;8.624;2023-10-09T07:10:17;14.20;99.90
9998;DHT22;5038;53.064;8.624;2023-10-09T07:13:00;14.20;99.90
9998;DHT22;5038;53.064;8.624;2023-10-09T07:15:31;14.20;99.90
9998;DHT22;5038;53.064;8.624;2023-10-09T07:18:17;14.20;99.90
9998;DHT22;5038;53.064;8.624;2023-10-09T07:20:50;14.20;99.90
9998;DHT22;5038;53.064;8.624;2023-10-09T07:23:28;14.30;99.90
9998;DHT22;5038;53.064;8.624;2023-10-09T07:26:04;14.30;99.90
9998;DHT22;5038;53.064;8.624;2023-10-09T07:28:50;14.30;99.90
9998;DHT22;5038;53.064;8.624;2023-10-09T07:31:29;14.30;99.90
9998;DHT22;5038;53.064;8.624;2023-10-09T07:34:06;14.40;99.90
9998;DHT22;5038;53.064;8.624;2023-10-09T07:36:49;14.40;99.90
9998;DHT22;5038;53.064;8.624;2023-10-09T07:39:23;14.40;99.90
9998;DHT22;5038;53.064;8.624;2023-10-09T07:42:04;14.40;99.90
9998;DHT22;5038;53.064;8.624;2023-10-09T07:44:46;14.50;99.90
9998;DHT22;5038;53.064;8.624;2023-10-09T07:47:21;14.50;99.90
9998;DHT22;5038;53.064;8.624;2023-10-09T07:50:00;14.50;99.90
9998;DHT22;5038;53.064;8.624;2023-10-09T07:52:29;14.50;99.90
9998;DHT22;5038;53.064;8.624;2023-10-09T07:54:57;14.60;99.90
9998;DHT22;5038;53.064;8.624;2023-10-09T07:57:33;14.60;99.90
9998;DHT22;5038;53.064;8.624;2023-10-09T08:00:09;14.70;99.90
9998;DHT22;5038;53.064;8.624;2023-10-09T08:03:04;14.60;99.90
9998;DHT22;5038;53.064;8.624;2023-10-09T08:05:51;14.70;99.90
9998;DHT22;5038;53.064;8.624;2023-10-09T08:08:33;14.70;99.90
9998;DHT22;5038;53.064;8.624;2023-10-09T08:11:27;14.70;99.90
9998;DHT22;5038;53.064;8.624;2023-10-09T08:14:24;14.80;99.90
9998;DHT22;5038;53.064;8.624;2023-10-09T08:17:06;14.80;99.90
9998;DHT22;5038;53.064;8.624;2023-10-09T08:19:46;14.90;99.90
9998;DHT22;5038;53.064;8.624;2023-10-09T08:22:25;14.90;99.90
9998;DHT22;5038;53.064;8.624;2023-10-09T08:25:11;14.90;99.90
9998;DHT22;5038;53.064;8.624;2023-10-09T08:27:56;14.90;99.90
9998;DHT22;5038;53.064;8.624;2023-10-09T08:30:25;14.90;99.90
9998;DHT22;5038;53.064;8.624;2023-10-09T08:33:08;14.90;99.90
9998;DHT22;5038;53.064;8.624;2023-10-09T08:35:58;15.00;99.90
9998;DHT22;5038;53.064;8.624;2023-10-09T08:38:32;15.00;99.90
9998;DHT22;5038;53.064;8.624;2023-10-09T08:41:08;15.00;99.90
9998;DHT22;5038;53.064;8.624;2023-10-09T08:43:47;15.10;99.90
9998;DHT22;5038;53.064;8.624;2023-10-09T08:46:22;15.10;99.90
9998;DHT22;5038;53.064;8.624;2023-10-09T08:48:50;15.10;99.90
9998;DHT22;5038;53.064;8.624;2023-10-09T08:51:20;15.10;99.90
9998;DHT22;5038;53.064;8.624;2023-10-09T08:53:48;15.10;99.90
9998;DHT22;5038;53.064;8.624;2023-10-09T08:56:17;15.20;99.90
9998;DHT22;5038;53.064;8.624;2023-10-09T08:58:53;15.20;99.90
9998;DHT22;5038;53.064;8.624;2023-10-09T09:01:23;15.20;99.90
9998;DHT22;5038;53.064;8.624;2023-10-09T09:03:53;15.30;99.90
9998;DHT22;5038;53.064;8.624;2023-10-09T09:06:24;15.30;99.90
9998;DHT22;5038;53.064;8.624;2023-10-09T09:08:54;15.30;99.90
9998;DHT22;5038;53.064;8.624;2023-10-09T09:11:41;15.30;99.90
9998;DHT22;5038;53.064;8.624;2023-10-09T09:14:15;15.30;99.90
9998;DHT22;5038;53.064;8.624;2023-10-09T09:16:48;15.40;99.90
9998;DHT22;5038;53.064;8.624;2023-10-09T09:19:16;15.40;99.90
9998;DHT22;5038;53.064;8.624;2023-10-09T09:21:57;15.40;99.90
9998;DHT22;5038;53.064;8.624;2023-10-09T09:24:26;15.50;99.90
9998;DHT22;5038;53.064;8.624;2023-10-09T09:27:01;15.50;99.90
9998;DHT22;5038;53.064;8.624;2023-10-09T09:29:41;15.50;99.90
9998;DHT22;5038;53.064;8.624;2023-10-09T09:32:27;15.50;99.90
9998;DHT22;5038;53.064;8.624;2023-10-09T09:35:03;15.60;99.90
9998;DHT22;5038;53.064;8.624;2023-10-09T09:37:34;15.60;99.90
9998;DHT22;5038;53.064;8.624;2023-10-09T09:40:17;15.60;99.90
9998;DHT22;5038;53.064;8.624;2023-10-09T09:43:02;15.60;99.90
9998;DHT22;5038;53.064;8.624;2023-10-09T09:45:34;15.60;99.90
9998;DHT22;5038;53.064;8.624;2023-10-09T09:48:04;15.60;99.90
9998;DHT22;5038;53.064;8.624;2023-10-09T09:50:33;15.70;99.90
9998;DHT22;5038;53.064;8.624;2023-10-09T09:53:06;15.70;99.90
9998;DHT22;5038;53.064;8.624;2023-10-09T09:55:38;15.70;99.90
9998;DHT22;5038;53.064;8.624;2023-10-09T09:58:14;15.70;99.90
9998;DHT22;5038;53.064;8.624;2023-10-09T10:00:46;15.70;99.90
9998;DHT22;5038;53.064;8.624;2023-10-09T10:03:22;15.80;99.90
9998;DHT22;5038;53.064;8.624;2023-10-09T10:05:52;15.80;99.90
9998;DHT22;5038;53.064;8.624;2023-10-09T10:08:25;15.80;99.90
9998;DHT22;5038;53.064;8.624;2023-10-09T10:10:59;15.80;99.90
9998;DHT22;5038;53.064;8.624;2023-10-09T10:13:56;15.80;99.90
9998;DHT22;5038;53.064;8.624;2023-10-09T10:17:02;15.90;99.90
9998;DHT22;5038;53.064;8.624;2023-10-09T10:20:00;15.90;99.90
9998;DHT22;5038;53.064;8.624;2023-10-09T10:22:51;15.90;99.90
9998;DHT22;5038;53.064;8.624;2023-10-09T10:25:38;15.90;99.90
9998;DHT22;5038;53.064;8.624;2023-10-09T10:28:19;15.90;99.90
9998;DHT22;5038;53.064;8.624;2023-10-09T10:31:06;16.00;99.90
9998;DHT22;5038;53.064;8.624;2023-10-09T10:34:04;16.00;99.90
9998;DHT22;5038;53.064;8.624;2023-10-09T10:36:37;16.00;99.90
9998;DHT22;5038;53.064;8.624;2023-10-09T10:39:09;16.00;99.90
9998;DHT22;5038;53.064;8.624;2023-10-09T10:41:54;16.00;99.90
9998;DHT22;5038;53.064;8.624;2023-10-09T10:44:27;16.10;99.90
9998;DHT22;5038;53.064;8.624;2023-10-09T10:47:06;16.10;99.90
9998;DHT22;5038;53.064;8.624;2023-10-09T10:49:49;16.10;99.90
9998;DHT22;5038;53.064;8.624;2023-10-09T10:52:21;16.10;99.90
9998;DHT22;5038;53.064;8.624;2023-10-09T10:54:51;16.10;99.90
9998;DHT22;5038;53.064;8.624;2023-10-09T10:57:36;16.20;99.90
9998;DHT22;5038;53.064;8.624;2023-10-09T11:00:20;16.20;99.90
9998;DHT22;5038;53.064;8.624;2023-10-09T11:03:06;16.20;99.90
9998;DHT22;5038;53.064;8.624;2023-10-09T11:05:47;16.20;99.90
9998;DHT22;5038;53.064;8.624;2023-10-09T11:08:24;16.20;99.90
9998;DHT22;5038;53.064;8.624;2023-10-09T11:11:11;16.30;99.90
9998;DHT22;5038;53.064;8.624;2023-10-09T11:13:44;16.30;99.90
9998;DHT22;5038;53.064;8.624;2023-10-09T11:16:25;16.30;99.90
9998;DHT22;5038;53.064;8.624;2023-10-09T11:19:19;16.30;99.90
9998;DHT22;5038;53.064;8.624;2023-10-09T11:22:00;16.30;99.90
9998;DHT22;5038;53.064;8.624;2023-10-09T11:24:48;16.30;99.90
9998;DHT22;5038;53.064;8.624;2023-10-09T11:27:39;16.30;99.90
9998;DHT22;5038;53.064;8.624;2023-10-09T11:30:09;16.40;99.90
9998;DHT22;5038;53.064;8.624;2023-10-09T11:32:48;16.40;99.90
9998;DHT22;5038;53.064;8.624;2023-10-09T11:35:17;16.40;99.90
9998;DHT22;5038;53.064;8.624;2023-10-09T11:37:56;16.50;99.90
9998;DHT22;5038;53.064;8.624;2023-10-09T11:40:30;16.50;99.90
9998;DHT22;5038;53.064;8.624;2023-10-09T11:43:20;16.50;99.90
9998;DHT22;5038;53.064;8.624;2023-10-09T11:46:09;16.50;99.90
9998;DHT22;5038;53.064;8.624;2023-10-09T11:48:40;16.60;99.90
9998;DHT22;5038;53.064;8.624;2023-10-09T11:51:13;16.60;99.90
9998;DHT22;5038;53.064;8.624;2023-10-09T11:53:46;16.60;99.90
9998;DHT22;5038;53.064;8.624;2023-10-09T11:56:17;16.70;99.90
9998;DHT22;5038;53.064;8.624;2023-10-09T11:58:47;16.70;99.90
9998;DHT22;5038;53.064;8.624;2023-10-09T12:01:18;16.70;99.90
9998;DHT22;5038;53.064;8.624;2023-10-09T12:03:49;16.80;99.90
9998;DHT22;5038;53.064;8.624;2023-10-09T12:06:19;16.80;99.90
9998;DHT22;5038;53.064;8.624;2023-10-09T12:08:50;16.80;99.90
9998;DHT22;5038;53.064;8.624;2023-10-09T12:11:18;16.90;99.90
9998;DHT22;5038;53.064;8.624;2023-10-09T12:13:51;16.90;99.90
9998;DHT22;5038;53.064;8.624;2023-10-09T12:16:25;16.90;99.90
9998;DHT22;5038;53.064;8.624;2023-10-09T12:18:55;16.90;99.90
9998;DHT22;5038;53.064;8.624;2023-10-09T12:21:23;17.00;99.90
9998;DHT22;5038;53.064;8.624;2023-10-09T12:23:55;17.00;99.90
9998;DHT22;5038;53.064;8.624;2023-10-09T12:26:28;17.00;99.90
9998;DHT22;5038;53.064;8.624;2023-10-09T12:29:02;17.10;99.90
9998;DHT22;5038;53.064;8.624;2023-10-09T12:31:32;17.10;99.90
9998;DHT22;5038;53.064;8.624;2023-10-09T12:34:01;17.10;99.90
9998;DHT22;5038;53.064;8.624;2023-10-09T12:36:29;17.10;99.90
9998;DHT22;5038;53.064;8.624;2023-10-09T12:39:04;17.10;99.90
9998;DHT22;5038;53.064;8.624;2023-10-09T12:41:33;17.10;99.90
9998;DHT22;5038;53.064;8.624;2023-10-09T12:44:02;17.20;99.90
9998;DHT22;5038;53.064;8.624;2023-10-09T12:46:33;17.20;99.90
9998;DHT22;5038;53.064;8.624;2023-10-09T12:49:05;17.20;99.90
9998;DHT22;5038;53.064;8.624;2023-10-09T12:51:33;17.20;99.90
9998;DHT22;5038;53.064;8.624;2023-10-09T12:54:01;17.20;99.90
9998;DHT22;5038;53.064;8.624;2023-10-09T12:56:29;17.20;99.90
9998;DHT22;5038;53.064;8.624;2023-10-09T12:59:05;17.20;99.90
9998;DHT22;5038;53.064;8.624;2023-10-09T13:01:36;17.20;99.90
9998;DHT22;5038;53.064;8.624;2023-10-09T13:04:10;17.20;99.90
9998;DHT22;5038;53.064;8.624;2023-10-09T13:06:40;17.20;99.90
9998;DHT22;5038;53.064;8.624;2023-10-09T13:09:11;17.20;99.90
9998;DHT22;5038;53.064;8.624;2023-10-09T13:11:40;17.20;99.90
9998;DHT22;5038;53.064;8.624;2023-10-09T13:14:09;17.20;99.90
9998;DHT22;5038;53.064;8.624;2023-10-09T13:16:46;17.20;99.90
9998;DHT22;5038;53.064;8.624;2023-10-09T13:19:14;17.20;99.90
9998;DHT22;5038;53.064;8.624;2023-10-09T13:21:42;17.20;99.90
9998;DHT22;5038;53.064;8.624;2023-10-09T13:24:11;17.20;99.90
9998;DHT22;5038;53.064;8.624;2023-10-09T13:26:42;17.20;99.90
9998;DHT22;5038;53.064;8.624;2023-10-09T13:29:13;17.20;99.90
9998;DHT22;5038;53.064;8.624;2023-10-09T13:31:51;17.20;99.90
9998;DHT22;5038;53.064;8.624;2023-10-09T13:34:29;17.20;99.90
9998;DHT22;5038;53.064;8.624;2023-10-09T13:37:00;17.20;99.90
9998;DHT22;5038;53.064;8.624;2023-10-09T13:39:38;17.20;99.90
9998;DHT22;5038;53.064;8.624;2023-10-09T13:42:07;17.20;99.90
9998;DHT22;5038;53.064;8.624;2023-10-09T13:44:35;17.20;99.90
9998;DHT22;5038;53.064;8.624;2023-10-09T13:47:05;17.20;99.90
9998;DHT22;5038;53.064;8.624;2023-10-09T13:49:36;17.20;99.90
9998;DHT22;5038;53.064;8.624;2023-10-09T13:52:09;17.30;99.90
9998;DHT22;5038;53.064;8.624;2023-10-09T13:54:45;17.30;99.90
9998;DHT22;5038;53.064;8.624;2023-10-09T13:57:16;17.20;99.90
9998;DHT22;5038;53.064;8.624;2023-10-09T13:59:49;17.20;99.90
9998;DHT22;5038;53.064;8.624;2023-10-09T14:02:18;17.30;99.90
9998;DHT22;5038;53.064;8.624;2023-10-09T14:04:48;17.30;99.90
9998;DHT22;5038;53.064;8.624;2023-10-09T14:07:17;17.30;99.90
9998;DHT22;5038;53.064;8.624;2023-10-09T14:09:47;17.30;99.90
9998;DHT22;5038;53.064;8.624;2023-10-09T14:12:34;17.20;99.90
9998;DHT22;5038;53.064;8.624;2023-10-09T14:15:07;17.20;99.90
9998;DHT22;5038;53.064;8.624;2023-10-09T14:17:39;17.20;99.90
9998;DHT22;5038;53.064;8.624;2023-10-09T14:20:10;17.20;99.90
9998;DHT22;5038;53.064;8.624;2023-10-09T14:23:04;17.20;99.90
9998;DHT22;5038;53.064;8.624;2023-10-09T14:25:35;17.10;99.90
9998;DHT22;5038;53.064;8.624;2023-10-09T14:28:05;17.10;99.90
9998;DHT22;5038;53.064;8.624;2023-10-09T14:30:35;17.10;99.90
9998;DHT22;5038;53.064;8.624;2023-10-09T14:33:09;17.10;99.90
9998;DHT22;5038;53.064;8.624;2023-10-09T14:35:40;17.10;99.90
9998;DHT22;5038;53.064;8.624;2023-10-09T14:38:10;17.10;99.90
9998;DHT22;5038;53.064;8.624;2023-10-09T14:40:43;17.10;99.90
9998;DHT22;5038;53.064;8.624;2023-10-09T14:43:11;17.10;99.90
9998;DHT22;5038;53.064;8.624;2023-10-09T14:45:46;17.10;99.90
9998;DHT22;5038;53.064;8.624;2023-10-09T14:48:16;17.10;99.90
9998;DHT22;5038;53.064;8.624;2023-10-09T14:50:48;17.10;99.90
9998;DHT22;5038;53.064;8.624;2023-10-09T14:53:21;17.10;99.90
9998;DHT22;5038;53.064;8.624;2023-10-09T14:55:57;17.10;99.90
9998;DHT22;5038;53.064;8.624;2023-10-09T14:58:26;17.10;99.90
9998;DHT22;5038;53.064;8.624;2023-10-09T15:00:56;17.10;99.90
9998;DHT22;5038;53.064;8.624;2023-10-09T15:03:24;17.10;99.90
9998;DHT22;5038;53.064;8.624;2023-10-09T15:05:58;17.10;99.90
9998;DHT22;5038;53.064;8.624;2023-10-09T15:08:28;17.10;99.90
9998;DHT22;5038;53.064;8.624;2023-10-09T15:10:56;17.10;99.90
9998;DHT22;5038;53.064;8.624;2023-10-09T15:13:26;17.10;99.90
9998;DHT22;5038;53.064;8.624;2023-10-09T15:15:55;17.10;99.90
9998;DHT22;5038;53.064;8.624;2023-10-09T15:18:23;17.10;99.90
9998;DHT22;5038;53.064;8.624;2023-10-09T15:20:52;17.10;99.90
9998;DHT22;5038;53.064;8.624;2023-10-09T15:23:20;17.10;99.90
9998;DHT22;5038;53.064;8.624;2023-10-09T15:25:50;17.10;99.90
9998;DHT22;5038;53.064;8.624;2023-10-09T15:28:19;17.00;99.90
9998;DHT22;5038;53.064;8.624;2023-10-09T15:30:48;17.00;99.90
9998;DHT22;5038;53.064;8.624;2023-10-09T15:33:16;17.00;99.90
9998;DHT22;5038;53.064;8.624;2023-10-09T15:35:46;17.00;99.90
9998;DHT22;5038;53.064;8.624;2023-10-09T15:38:16;17.00;99.90
9998;DHT22;5038;53.064;8.624;2023-10-09T15:40:46;17.00;99.90
9998;DHT22;5038;53.064;8.624;2023-10-09T15:43:16;17.00;99.90
9998;DHT22;5038;53.064;8.624;2023-10-09T15:45:44;17.00;99.90
9998;DHT22;5038;53.064;8.624;2023-10-09T15:48:15;17.00;99.90
9998;DHT22;5038;53.064;8.624;2023-10-09T15:50:47;16.90;99.90
9998;DHT22;5038;53.064;8.624;2023-10-09T15:53:18;16.90;99.90
9998;DHT22;5038;53.064;8.624;2023-10-09T15:55:46;16.90;99.90
9998;DHT22;5038;53.064;8.624;2023-10-09T15:58:19;16.90;99.90
9998;DHT22;5038;53.064;8.624;2023-10-09T16:00:48;16.90;99.90
9998;DHT22;5038;53.064;8.624;2023-10-09T16:03:17;16.90;99.90
9998;DHT22;5038;53.064;8.624;2023-10-09T16:05:45;16.90;99.90
9998;DHT22;5038;53.064;8.624;2023-10-09T16:08:15;16.90;99.90
9998;DHT22;5038;53.064;8.624;2023-10-09T16:10:46;16.90;99.90
9998;DHT22;5038;53.064;8.624;2023-10-09T16:13:14;16.90;99.90
9998;DHT22;5038;53.064;8.624;2023-10-09T16:15:44;16.90;99.90
9998;DHT22;5038;53.064;8.624;2023-10-09T16:18:12;16.90;99.90
9998;DHT22;5038;53.064;8.624;2023-10-09T16:20:41;16.90;99.90
9998;DHT22;5038;53.064;8.624;2023-10-09T16:23:10;16.90;99.90
9998;DHT22;5038;53.064;8.624;2023-10-09T16:25:39;16.90;99.90
9998;DHT22;5038;53.064;8.624;2023-10-09T16:28:07;16.90;99.90
9998;DHT22;5038;53.064;8.624;2023-10-09T16:30:36;16.90;99.90
9998;DHT22;5038;53.064;8.624;2023-10-09T16:33:10;16.80;99.90
9998;DHT22;5038;53.064;8.624;2023-10-09T16:35:38;16.90;99.90
9998;DHT22;5038;53.064;8.624;2023-10-09T16:38:08;16.80;99.90
9998;DHT22;5038;53.064;8.624;2023-10-09T16:40:39;16.80;99.90
9998;DHT22;5038;53.064;8.624;2023-10-09T16:43:13;16.80;99.90
9998;DHT22;5038;53.064;8.624;2023-10-09T16:45:44;16.80;99.90
9998;DHT22;5038;53.064;8.624;2023-10-09T16:48:13;16.70;99.90
9998;DHT22;5038;53.064;8.624;2023-10-09T16:50:43;16.70;99.90
9998;DHT22;5038;53.064;8.624;2023-10-09T16:53:14;16.70;99.90